sensor_id;sensor_type;location;lat;lon;timestamp;P1;durP1;ratioP1;P2;durP2;ratioP2
69744;SDS011;57015;50.120;-5.168;2023-05-07T00:01:12;4.63;;;1.80;;
69744;SDS011;57015;50.120;-5.168;2023-05-07T00:03:37;7.60;;;2.10;;
69744;SDS011;57015;50.120;-5.168;2023-05-07T00:06:03;8.77;;;2.60;;
69744;SDS011;57015;50.120;-5.168;2023-05-07T00:08:28;6.83;;;1.70;;
69744;SDS011;57015;50.120;-5.168;2023-05-07T00:10:54;5.70;;;1.60;;
69744;SDS011;57015;50.120;-5.168;2023-05-07T00:13:19;4.33;;;1.43;;
69744;SDS011;57015;50.120;-5.168;2023-05-07T00:15:44;9.40;;;2.00;;
69744;SDS011;57015;50.120;-5.168;2023-05-07T00:18:10;7.57;;;2.33;;
69744;SDS011;57015;50.120;-5.168;2023-05-07T00:20:35;6.13;;;1.77;;
69744;SDS011;57015;50.120;-5.168;2023-05-07T00:23:01;9.03;;;1.73;;
69744;SDS011;57015;50.120;-5.168;2023-05-07T00:25:26;5.60;;;1.73;;
69744;SDS011;57015;50.120;-5.168;2023-05-07T00:27:51;4.00;;;1.40;;
69744;SDS011;57015;50.120;-5.168;2023-05-07T00:30:17;5.82;;;1.27;;
69744;SDS011;57015;50.120;-5.168;2023-05-07T00:32:42;3.70;;;1.42;;
69744;SDS011;57015;50.120;-5.168;2023-05-07T00:35:10;4.60;;;1.60;;
69744;SDS011;57015;50.120;-5.168;2023-05-07T00:37:36;5.97;;;1.58;;
69744;SDS011;57015;50.120;-5.168;2023-05-07T00:40:01;7.03;;;2.03;;
69744;SDS011;57015;50.120;-5.168;2023-05-07T00:42:29;3.40;;;1.40;;
69744;SDS011;57015;50.120;-5.168;2023-05-07T00:44:57;7.68;;;1.85;;
69744;SDS011;57015;50.120;-5.168;2023-05-07T00:47:23;5.53;;;1.20;;
69744;SDS011;57015;50.120;-5.168;2023-05-07T00:49:48;6.50;;;1.30;;
69744;SDS011;57015;50.120;-5.168;2023-05-07T00:52:15;7.17;;;1.20;;
69744;SDS011;57015;50.120;-5.168;2023-05-07T00:54:42;7.25;;;1.88;;
69744;SDS011;57015;50.120;-5.168;2023-05-07T00:57:09;4.75;;;1.30;;
69744;SDS011;57015;50.120;-5.168;2023-05-07T00:59:36;3.58;;;1.10;;
69744;SDS011;57015;50.120;-5.168;2023-05-07T01:02:01;3.67;;;1.50;;
69744;SDS011;57015;50.120;-5.168;2023-05-07T01:04:27;5.43;;;1.27;;
69744;SDS011;57015;50.120;-5.168;2023-05-07T01:06:52;6.70;;;1.30;;
69744;SDS011;57015;50.120;-5.168;2023-05-07T01:09:20;4.55;;;1.38;;
69744;SDS011;57015;50.120;-5.168;2023-05-07T01:11:47;3.78;;;1.00;;
69744;SDS011;57015;50.120;-5.168;2023-05-07T01:14:13;4.53;;;1.13;;
69744;SDS011;57015;50.120;-5.168;2023-05-07T01:16:38;9.18;;;1.30;;
69744;SDS011;57015;50.120;-5.168;2023-05-07T01:19:06;3.05;;;0.98;;
69744;SDS011;57015;50.120;-5.168;2023-05-07T01:21:33;6.00;;;1.05;;
69744;SDS011;57015;50.120;-5.168;2023-05-07T01:24:02;4.07;;;1.27;;
69744;SDS011;57015;50.120;-5.168;2023-05-07T01:26:27;5.03;;;0.90;;
69744;SDS011;57015;50.120;-5.168;2023-05-07T01:28:53;4.97;;;0.80;;
69744;SDS011;57015;50.120;-5.168;2023-05-07T01:31:18;7.03;;;1.10;;
69744;SDS011;57015;50.120;-5.168;2023-05-07T01:33:44;3.60;;;0.85;;
69744;SDS011;57015;50.120;-5.168;2023-05-07T01:36:10;2.65;;;0.77;;
69744;SDS011;57015;50.120;-5.168;2023-05-07T01:38:36;2.53;;;0.82;;
69744;SDS011;57015;50.120;-5.168;2023-05-07T01:41:02;5.10;;;1.30;;
69744;SDS011;57015;50.120;-5.168;2023-05-07T01:43:28;4.35;;;0.95;;
69744;SDS011;57015;50.120;-5.168;2023-05-07T01:45:54;4.05;;;1.00;;
69744;SDS011;57015;50.120;-5.168;2023-05-07T01:48:20;4.33;;;1.07;;
69744;SDS011;57015;50.120;-5.168;2023-05-07T01:50:46;2.70;;;0.80;;
69744;SDS011;57015;50.120;-5.168;2023-05-07T01:53:12;2.83;;;0.93;;
69744;SDS011;57015;50.120;-5.168;2023-05-07T01:55:37;4.33;;;0.93;;
69744;SDS011;57015;50.120;-5.168;2023-05-07T01:58:03;6.30;;;0.80;;
69744;SDS011;57015;50.120;-5.168;2023-05-07T02:00:29;3.15;;;1.20;;
69744;SDS011;57015;50.120;-5.168;2023-05-07T02:02:54;4.00;;;0.80;;
69744;SDS011;57015;50.120;-5.168;2023-05-07T02:05:19;7.47;;;0.98;;
69744;SDS011;57015;50.120;-5.168;2023-05-07T02:07:45;4.47;;;1.73;;
69744;SDS011;57015;50.120;-5.168;2023-05-07T02:10:10;6.33;;;1.07;;
69744;SDS011;57015;50.120;-5.168;2023-05-07T02:12:36;2.77;;;0.73;;
69744;SDS011;57015;50.120;-5.168;2023-05-07T02:15:01;4.17;;;0.97;;
69744;SDS011;57015;50.120;-5.168;2023-05-07T02:17:26;4.97;;;1.10;;
69744;SDS011;57015;50.120;-5.168;2023-05-07T02:19:52;4.20;;;0.87;;
69744;SDS011;57015;50.120;-5.168;2023-05-07T02:22:17;2.30;;;0.80;;
69744;SDS011;57015;50.120;-5.168;2023-05-07T02:24:43;3.53;;;0.80;;
69744;SDS011;57015;50.120;-5.168;2023-05-07T02:27:08;2.63;;;0.70;;
69744;SDS011;57015;50.120;-5.168;2023-05-07T02:29:33;3.40;;;1.00;;
69744;SDS011;57015;50.120;-5.168;2023-05-07T02:31:59;4.13;;;1.10;;
69744;SDS011;57015;50.120;-5.168;2023-05-07T02:34:24;2.47;;;0.98;;
69744;SDS011;57015;50.120;-5.168;2023-05-07T02:36:50;5.82;;;1.60;;
69744;SDS011;57015;50.120;-5.168;2023-05-07T02:39:16;2.63;;;0.80;;
69744;SDS011;57015;50.120;-5.168;2023-05-07T02:41:41;4.10;;;0.70;;
69744;SDS011;57015;50.120;-5.168;2023-05-07T02:44:07;6.17;;;0.70;;
69744;SDS011;57015;50.120;-5.168;2023-05-07T02:46:32;5.47;;;1.13;;
69744;SDS011;57015;50.120;-5.168;2023-05-07T02:48:58;5.13;;;0.97;;
69744;SDS011;57015;50.120;-5.168;2023-05-07T02:51:23;4.15;;;0.98;;
69744;SDS011;57015;50.120;-5.168;2023-05-07T02:53:49;3.47;;;1.13;;
69744;SDS011;57015;50.120;-5.168;2023-05-07T02:56:14;3.60;;;1.07;;
69744;SDS011;57015;50.120;-5.168;2023-05-07T02:58:40;7.20;;;1.00;;
69744;SDS011;57015;50.120;-5.168;2023-05-07T03:01:07;8.05;;;1.10;;
69744;SDS011;57015;50.120;-5.168;2023-05-07T03:03:33;3.90;;;0.80;;
69744;SDS011;57015;50.120;-5.168;2023-05-07T03:05:58;4.37;;;0.80;;
69744;SDS011;57015;50.120;-5.168;2023-05-07T03:08:24;3.80;;;1.17;;
69744;SDS011;57015;50.120;-5.168;2023-05-07T03:10:49;3.42;;;1.08;;
69744;SDS011;57015;50.120;-5.168;2023-05-07T03:13:15;4.37;;;1.10;;
69744;SDS011;57015;50.120;-5.168;2023-05-07T03:15:40;3.23;;;0.80;;
69744;SDS011;57015;50.120;-5.168;2023-05-07T03:18:06;2.97;;;0.60;;
69744;SDS011;57015;50.120;-5.168;2023-05-07T03:20:31;5.30;;;1.10;;
69744;SDS011;57015;50.120;-5.168;2023-05-07T03:22:57;5.13;;;0.95;;
69744;SDS011;57015;50.120;-5.168;2023-05-07T03:25:22;4.00;;;0.97;;
69744;SDS011;57015;50.120;-5.168;2023-05-07T03:27:47;5.27;;;1.30;;
69744;SDS011;57015;50.120;-5.168;2023-05-07T03:30:13;4.90;;;1.30;;
69744;SDS011;57015;50.120;-5.168;2023-05-07T03:32:38;3.75;;;1.13;;
69744;SDS011;57015;50.120;-5.168;2023-05-07T03:35:04;4.60;;;1.30;;
69744;SDS011;57015;50.120;-5.168;2023-05-07T03:37:29;3.20;;;0.80;;
69744;SDS011;57015;50.120;-5.168;2023-05-07T03:39:55;5.97;;;1.20;;
69744;SDS011;57015;50.120;-5.168;2023-05-07T03:42:20;4.03;;;1.38;;
69744;SDS011;57015;50.120;-5.168;2023-05-07T03:44:46;5.97;;;1.40;;
69744;SDS011;57015;50.120;-5.168;2023-05-07T03:47:11;4.90;;;1.10;;
69744;SDS011;57015;50.120;-5.168;2023-05-07T03:49:38;4.65;;;1.05;;
69744;SDS011;57015;50.120;-5.168;2023-05-07T03:52:04;4.25;;;1.25;;
69744;SDS011;57015;50.120;-5.168;2023-05-07T03:54:29;3.60;;;1.40;;
69744;SDS011;57015;50.120;-5.168;2023-05-07T03:56:55;3.60;;;1.35;;
69744;SDS011;57015;50.120;-5.168;2023-05-07T03:59:21;3.33;;;1.30;;
69744;SDS011;57015;50.120;-5.168;2023-05-07T04:01:46;6.17;;;1.07;;
69744;SDS011;57015;50.120;-5.168;2023-05-07T04:04:13;6.78;;;1.63;;
69744;SDS011;57015;50.120;-5.168;2023-05-07T04:06:39;6.97;;;1.48;;
69744;SDS011;57015;50.120;-5.168;2023-05-07T04:09:04;4.35;;;1.42;;
69744;SDS011;57015;50.120;-5.168;2023-05-07T04:11:30;3.63;;;1.07;;
69744;SDS011;57015;50.120;-5.168;2023-05-07T04:13:55;4.57;;;1.50;;
69744;SDS011;57015;50.120;-5.168;2023-05-07T04:16:20;4.43;;;1.60;;
69744;SDS011;57015;50.120;-5.168;2023-05-07T04:18:46;6.40;;;1.67;;
69744;SDS011;57015;50.120;-5.168;2023-05-07T04:21:15;5.57;;;1.65;;
69744;SDS011;57015;50.120;-5.168;2023-05-07T04:23:43;5.63;;;1.70;;
69744;SDS011;57015;50.120;-5.168;2023-05-07T04:26:09;5.38;;;1.33;;
69744;SDS011;57015;50.120;-5.168;2023-05-07T04:28:35;4.40;;;1.23;;
69744;SDS011;57015;50.120;-5.168;2023-05-07T04:31:00;3.93;;;1.63;;
69744;SDS011;57015;50.120;-5.168;2023-05-07T04:33:26;3.67;;;1.10;;
69744;SDS011;57015;50.120;-5.168;2023-05-07T04:35:51;4.43;;;1.17;;
69744;SDS011;57015;50.120;-5.168;2023-05-07T04:38:17;3.50;;;1.33;;
69744;SDS011;57015;50.120;-5.168;2023-05-07T04:40:43;4.55;;;1.40;;
69744;SDS011;57015;50.120;-5.168;2023-05-07T04:43:09;5.77;;;1.27;;
69744;SDS011;57015;50.120;-5.168;2023-05-07T04:45:35;3.30;;;1.25;;
69744;SDS011;57015;50.120;-5.168;2023-05-07T04:48:01;4.60;;;1.60;;
69744;SDS011;57015;50.120;-5.168;2023-05-07T04:50:26;5.43;;;1.38;;
69744;SDS011;57015;50.120;-5.168;2023-05-07T04:52:51;5.87;;;1.33;;
69744;SDS011;57015;50.120;-5.168;2023-05-07T04:55:17;5.07;;;1.10;;
69744;SDS011;57015;50.120;-5.168;2023-05-07T04:57:42;4.50;;;1.75;;
69744;SDS011;57015;50.120;-5.168;2023-05-07T05:00:08;4.30;;;1.20;;
69744;SDS011;57015;50.120;-5.168;2023-05-07T05:02:34;3.30;;;1.00;;
69744;SDS011;57015;50.120;-5.168;2023-05-07T05:05:00;5.65;;;1.50;;
69744;SDS011;57015;50.120;-5.168;2023-05-07T05:07:27;5.23;;;1.33;;
69744;SDS011;57015;50.120;-5.168;2023-05-07T05:09:53;6.22;;;1.35;;
69744;SDS011;57015;50.120;-5.168;2023-05-07T05:12:18;3.70;;;1.13;;
69744;SDS011;57015;50.120;-5.168;2023-05-07T05:14:44;3.07;;;1.20;;
69744;SDS011;57015;50.120;-5.168;2023-05-07T05:17:09;5.40;;;1.10;;
69744;SDS011;57015;50.120;-5.168;2023-05-07T05:19:35;4.90;;;1.53;;
69744;SDS011;57015;50.120;-5.168;2023-05-07T05:22:00;5.60;;;2.33;;
69744;SDS011;57015;50.120;-5.168;2023-05-07T05:24:26;7.55;;;1.45;;
69744;SDS011;57015;50.120;-5.168;2023-05-07T05:26:53;5.20;;;1.60;;
69744;SDS011;57015;50.120;-5.168;2023-05-07T05:29:18;5.78;;;1.17;;
69744;SDS011;57015;50.120;-5.168;2023-05-07T05:31:44;4.80;;;1.50;;
69744;SDS011;57015;50.120;-5.168;2023-05-07T05:34:09;7.40;;;1.37;;
69744;SDS011;57015;50.120;-5.168;2023-05-07T05:36:34;5.10;;;1.40;;
69744;SDS011;57015;50.120;-5.168;2023-05-07T05:39:00;4.10;;;1.37;;
69744;SDS011;57015;50.120;-5.168;2023-05-07T05:41:25;5.72;;;1.25;;
69744;SDS011;57015;50.120;-5.168;2023-05-07T05:43:51;4.10;;;1.30;;
69744;SDS011;57015;50.120;-5.168;2023-05-07T05:46:16;4.47;;;1.43;;
69744;SDS011;57015;50.120;-5.168;2023-05-07T05:48:41;10.43;;;2.33;;
69744;SDS011;57015;50.120;-5.168;2023-05-07T05:51:07;4.80;;;1.37;;
69744;SDS011;57015;50.120;-5.168;2023-05-07T05:53:32;4.60;;;1.33;;
69744;SDS011;57015;50.120;-5.168;2023-05-07T05:55:57;9.50;;;1.37;;
69744;SDS011;57015;50.120;-5.168;2023-05-07T05:58:23;4.73;;;1.20;;
69744;SDS011;57015;50.120;-5.168;2023-05-07T06:00:48;4.40;;;1.20;;
69744;SDS011;57015;50.120;-5.168;2023-05-07T06:03:16;3.88;;;1.08;;
69744;SDS011;57015;50.120;-5.168;2023-05-07T06:05:41;5.93;;;1.50;;
69744;SDS011;57015;50.120;-5.168;2023-05-07T06:08:07;6.18;;;1.30;;
69744;SDS011;57015;50.120;-5.168;2023-05-07T06:10:32;7.32;;;1.38;;
69744;SDS011;57015;50.120;-5.168;2023-05-07T06:12:58;4.83;;;1.77;;
69744;SDS011;57015;50.120;-5.168;2023-05-07T06:15:23;3.43;;;1.50;;
69744;SDS011;57015;50.120;-5.168;2023-05-07T06:17:49;5.20;;;1.52;;
69744;SDS011;57015;50.120;-5.168;2023-05-07T06:20:14;7.05;;;2.00;;
69744;SDS011;57015;50.120;-5.168;2023-05-07T06:22:39;7.80;;;1.57;;
69744;SDS011;57015;50.120;-5.168;2023-05-07T06:25:05;3.87;;;1.43;;
69744;SDS011;57015;50.120;-5.168;2023-05-07T06:27:31;6.68;;;1.65;;
69744;SDS011;57015;50.120;-5.168;2023-05-07T06:29:56;6.43;;;1.53;;
69744;SDS011;57015;50.120;-5.168;2023-05-07T06:32:21;8.20;;;2.13;;
69744;SDS011;57015;50.120;-5.168;2023-05-07T06:34:47;11.80;;;3.97;;
69744;SDS011;57015;50.120;-5.168;2023-05-07T06:37:12;8.67;;;2.90;;
69744;SDS011;57015;50.120;-5.168;2023-05-07T06:39:37;7.93;;;2.43;;
69744;SDS011;57015;50.120;-5.168;2023-05-07T06:42:03;10.07;;;2.87;;
69744;SDS011;57015;50.120;-5.168;2023-05-07T06:44:29;13.80;;;3.22;;
69744;SDS011;57015;50.120;-5.168;2023-05-07T06:46:55;12.63;;;3.05;;
69744;SDS011;57015;50.120;-5.168;2023-05-07T06:49:20;8.77;;;2.40;;
69744;SDS011;57015;50.120;-5.168;2023-05-07T06:51:49;9.57;;;2.63;;
69744;SDS011;57015;50.120;-5.168;2023-05-07T06:54:23;12.43;;;4.70;;
69744;SDS011;57015;50.120;-5.168;2023-05-07T06:56:48;14.77;;;5.30;;
69744;SDS011;57015;50.120;-5.168;2023-05-07T06:59:13;21.13;;;6.17;;
69744;SDS011;57015;50.120;-5.168;2023-05-07T07:01:39;19.45;;;6.10;;
69744;SDS011;57015;50.120;-5.168;2023-05-07T07:04:04;22.55;;;7.65;;
69744;SDS011;57015;50.120;-5.168;2023-05-07T07:06:30;23.57;;;6.77;;
69744;SDS011;57015;50.120;-5.168;2023-05-07T07:08:56;23.58;;;7.57;;
69744;SDS011;57015;50.120;-5.168;2023-05-07T07:11:22;28.20;;;8.33;;
69744;SDS011;57015;50.120;-5.168;2023-05-07T07:13:48;27.33;;;8.30;;
69744;SDS011;57015;50.120;-5.168;2023-05-07T07:16:13;28.27;;;8.63;;
69744;SDS011;57015;50.120;-5.168;2023-05-07T07:18:38;23.93;;;8.27;;
69744;SDS011;57015;50.120;-5.168;2023-05-07T07:21:04;30.05;;;9.02;;
69744;SDS011;57015;50.120;-5.168;2023-05-07T07:23:30;27.02;;;8.40;;
69744;SDS011;57015;50.120;-5.168;2023-05-07T07:25:55;24.33;;;8.53;;
69744;SDS011;57015;50.120;-5.168;2023-05-07T07:28:21;24.03;;;8.03;;
69744;SDS011;57015;50.120;-5.168;2023-05-07T07:30:46;26.60;;;8.27;;
69744;SDS011;57015;50.120;-5.168;2023-05-07T07:33:12;21.30;;;7.30;;
69744;SDS011;57015;50.120;-5.168;2023-05-07T07:35:37;25.23;;;7.77;;
69744;SDS011;57015;50.120;-5.168;2023-05-07T07:38:02;21.50;;;7.30;;
69744;SDS011;57015;50.120;-5.168;2023-05-07T07:40:28;22.43;;;6.90;;
69744;SDS011;57015;50.120;-5.168;2023-05-07T07:42:53;26.53;;;7.30;;
69744;SDS011;57015;50.120;-5.168;2023-05-07T07:45:19;26.75;;;7.22;;
69744;SDS011;57015;50.120;-5.168;2023-05-07T07:47:45;21.83;;;7.83;;
69744;SDS011;57015;50.120;-5.168;2023-05-07T07:50:10;29.60;;;8.82;;
69744;SDS011;57015;50.120;-5.168;2023-05-07T07:52:36;23.52;;;8.10;;
69744;SDS011;57015;50.120;-5.168;2023-05-07T07:55:01;31.90;;;8.40;;
69744;SDS011;57015;50.120;-5.168;2023-05-07T07:57:27;23.00;;;8.20;;
69744;SDS011;57015;50.120;-5.168;2023-05-07T07:59:52;20.17;;;7.55;;
69744;SDS011;57015;50.120;-5.168;2023-05-07T08:02:18;27.20;;;6.90;;
69744;SDS011;57015;50.120;-5.168;2023-05-07T08:04:43;21.80;;;5.83;;
69744;SDS011;57015;50.120;-5.168;2023-05-07T08:07:12;25.80;;;7.67;;
69744;SDS011;57015;50.120;-5.168;2023-05-07T08:09:38;21.23;;;5.85;;
69744;SDS011;57015;50.120;-5.168;2023-05-07T08:12:04;17.95;;;4.95;;
69744;SDS011;57015;50.120;-5.168;2023-05-07T08:14:30;15.82;;;4.15;;
69744;SDS011;57015;50.120;-5.168;2023-05-07T08:16:55;14.07;;;4.33;;
69744;SDS011;57015;50.120;-5.168;2023-05-07T08:19:20;15.60;;;4.20;;
69744;SDS011;57015;50.120;-5.168;2023-05-07T08:21:46;16.73;;;3.92;;
69744;SDS011;57015;50.120;-5.168;2023-05-07T08:24:15;11.93;;;3.87;;
69744;SDS011;57015;50.120;-5.168;2023-05-07T08:26:41;9.95;;;3.53;;
69744;SDS011;57015;50.120;-5.168;2023-05-07T08:29:06;12.03;;;3.53;;
69744;SDS011;57015;50.120;-5.168;2023-05-07T08:31:32;14.57;;;3.40;;
69744;SDS011;57015;50.120;-5.168;2023-05-07T08:33:58;10.60;;;3.40;;
69744;SDS011;57015;50.120;-5.168;2023-05-07T08:36:24;15.23;;;4.57;;
69744;SDS011;57015;50.120;-5.168;2023-05-07T08:38:50;15.85;;;3.90;;
69744;SDS011;57015;50.120;-5.168;2023-05-07T08:41:16;13.27;;;3.27;;
69744;SDS011;57015;50.120;-5.168;2023-05-07T08:43:41;9.27;;;3.43;;
69744;SDS011;57015;50.120;-5.168;2023-05-07T08:46:13;13.13;;;3.10;;
69744;SDS011;57015;50.120;-5.168;2023-05-07T08:48:42;13.57;;;3.40;;
69744;SDS011;57015;50.120;-5.168;2023-05-07T08:51:08;13.87;;;3.03;;
69744;SDS011;57015;50.120;-5.168;2023-05-07T08:53:37;16.85;;;4.00;;
69744;SDS011;57015;50.120;-5.168;2023-05-07T08:56:05;11.02;;;3.42;;
69744;SDS011;57015;50.120;-5.168;2023-05-07T08:58:31;11.93;;;3.53;;
69744;SDS011;57015;50.120;-5.168;2023-05-07T09:00:56;13.23;;;3.10;;
69744;SDS011;57015;50.120;-5.168;2023-05-07T09:03:21;9.57;;;3.17;;
69744;SDS011;57015;50.120;-5.168;2023-05-07T09:05:47;11.83;;;3.40;;
69744;SDS011;57015;50.120;-5.168;2023-05-07T09:08:14;9.30;;;3.00;;
69744;SDS011;57015;50.120;-5.168;2023-05-07T09:10:40;7.77;;;2.33;;
69744;SDS011;57015;50.120;-5.168;2023-05-07T09:13:06;8.15;;;2.35;;
69744;SDS011;57015;50.120;-5.168;2023-05-07T09:15:31;9.43;;;2.30;;
69744;SDS011;57015;50.120;-5.168;2023-05-07T09:18:00;13.73;;;2.60;;
69744;SDS011;57015;50.120;-5.168;2023-05-07T09:20:31;10.75;;;2.47;;
69744;SDS011;57015;50.120;-5.168;2023-05-07T09:22:57;9.03;;;2.33;;
69744;SDS011;57015;50.120;-5.168;2023-05-07T09:25:29;15.17;;;2.50;;
69744;SDS011;57015;50.120;-5.168;2023-05-07T09:27:55;11.65;;;2.60;;
69744;SDS011;57015;50.120;-5.168;2023-05-07T09:30:20;9.33;;;1.70;;
69744;SDS011;57015;50.120;-5.168;2023-05-07T09:32:46;6.83;;;2.00;;
69744;SDS011;57015;50.120;-5.168;2023-05-07T09:35:15;13.80;;;2.53;;
69744;SDS011;57015;50.120;-5.168;2023-05-07T09:37:41;8.63;;;2.20;;
69744;SDS011;57015;50.120;-5.168;2023-05-07T09:40:07;10.43;;;2.37;;
69744;SDS011;57015;50.120;-5.168;2023-05-07T09:42:34;9.88;;;2.58;;
69744;SDS011;57015;50.120;-5.168;2023-05-07T09:44:59;8.27;;;1.60;;
69744;SDS011;57015;50.120;-5.168;2023-05-07T09:47:25;10.80;;;2.33;;
69744;SDS011;57015;50.120;-5.168;2023-05-07T09:49:55;8.80;;;2.13;;
69744;SDS011;57015;50.120;-5.168;2023-05-07T09:52:22;11.77;;;2.05;;
69744;SDS011;57015;50.120;-5.168;2023-05-07T09:54:48;10.80;;;2.10;;
69744;SDS011;57015;50.120;-5.168;2023-05-07T09:57:15;10.40;;;2.08;;
69744;SDS011;57015;50.120;-5.168;2023-05-07T09:59:42;8.70;;;2.07;;
69744;SDS011;57015;50.120;-5.168;2023-05-07T10:02:08;12.63;;;2.17;;
69744;SDS011;57015;50.120;-5.168;2023-05-07T10:04:35;8.43;;;1.98;;
69744;SDS011;57015;50.120;-5.168;2023-05-07T10:07:00;8.90;;;2.30;;
69744;SDS011;57015;50.120;-5.168;2023-05-07T10:09:26;11.43;;;2.43;;
69744;SDS011;57015;50.120;-5.168;2023-05-07T10:11:52;11.63;;;2.22;;
69744;SDS011;57015;50.120;-5.168;2023-05-07T10:14:19;14.55;;;2.33;;
69744;SDS011;57015;50.120;-5.168;2023-05-07T10:16:45;12.45;;;1.98;;
69744;SDS011;57015;50.120;-5.168;2023-05-07T10:19:12;8.85;;;1.85;;
69744;SDS011;57015;50.120;-5.168;2023-05-07T10:21:38;12.55;;;2.50;;
69744;SDS011;57015;50.120;-5.168;2023-05-07T10:26:33;12.50;;;2.47;;
69744;SDS011;57015;50.120;-5.168;2023-05-07T10:29:02;9.10;;;2.00;;
69744;SDS011;57015;50.120;-5.168;2023-05-07T10:34:26;14.07;;;1.95;;
69744;SDS011;57015;50.120;-5.168;2023-05-07T10:36:54;10.10;;;2.47;;
69744;SDS011;57015;50.120;-5.168;2023-05-07T10:39:21;12.77;;;2.35;;
69744;SDS011;57015;50.120;-5.168;2023-05-07T10:41:50;16.88;;;2.53;;
69744;SDS011;57015;50.120;-5.168;2023-05-07T10:44:28;9.70;;;2.20;;
69744;SDS011;57015;50.120;-5.168;2023-05-07T10:47:07;8.70;;;2.03;;
69744;SDS011;57015;50.120;-5.168;2023-05-07T10:52:12;9.15;;;2.08;;
69744;SDS011;57015;50.120;-5.168;2023-05-07T10:54:45;8.45;;;1.73;;
69744;SDS011;57015;50.120;-5.168;2023-05-07T10:59:57;8.13;;;1.65;;
69744;SDS011;57015;50.120;-5.168;2023-05-07T11:02:23;10.37;;;1.63;;
69744;SDS011;57015;50.120;-5.168;2023-05-07T11:07:55;8.55;;;1.67;;
69744;SDS011;57015;50.120;-5.168;2023-05-07T11:10:21;10.55;;;2.58;;
69744;SDS011;57015;50.120;-5.168;2023-05-07T11:12:47;6.70;;;1.50;;
69744;SDS011;57015;50.120;-5.168;2023-05-07T11:15:32;8.13;;;1.50;;
69744;SDS011;57015;50.120;-5.168;2023-05-07T11:17:59;5.03;;;1.92;;
69744;SDS011;57015;50.120;-5.168;2023-05-07T11:23:33;8.15;;;1.77;;
69744;SDS011;57015;50.120;-5.168;2023-05-07T11:26:00;8.18;;;1.70;;
69744;SDS011;57015;50.120;-5.168;2023-05-07T11:28:39;7.65;;;1.63;;
69744;SDS011;57015;50.120;-5.168;2023-05-07T11:31:05;5.93;;;1.60;;
69744;SDS011;57015;50.120;-5.168;2023-05-07T11:33:31;5.40;;;1.52;;
69744;SDS011;57015;50.120;-5.168;2023-05-07T11:35:57;4.73;;;1.57;;
69744;SDS011;57015;50.120;-5.168;2023-05-07T11:38:23;5.63;;;1.73;;
69744;SDS011;57015;50.120;-5.168;2023-05-07T11:40:50;4.30;;;1.33;;
69744;SDS011;57015;50.120;-5.168;2023-05-07T11:43:16;7.80;;;1.70;;
69744;SDS011;57015;50.120;-5.168;2023-05-07T11:45:42;5.60;;;1.50;;
69744;SDS011;57015;50.120;-5.168;2023-05-07T11:48:07;7.97;;;1.70;;
69744;SDS011;57015;50.120;-5.168;2023-05-07T11:50:33;6.40;;;1.60;;
69744;SDS011;57015;50.120;-5.168;2023-05-07T11:52:58;6.32;;;1.67;;
69744;SDS011;57015;50.120;-5.168;2023-05-07T11:55:24;8.20;;;1.37;;
69744;SDS011;57015;50.120;-5.168;2023-05-07T11:57:50;5.13;;;1.30;;
69744;SDS011;57015;50.120;-5.168;2023-05-07T12:00:16;6.15;;;1.50;;
69744;SDS011;57015;50.120;-5.168;2023-05-07T12:02:42;6.00;;;1.70;;
69744;SDS011;57015;50.120;-5.168;2023-05-07T12:05:07;8.32;;;1.70;;
69744;SDS011;57015;50.120;-5.168;2023-05-07T12:07:33;5.80;;;1.30;;
69744;SDS011;57015;50.120;-5.168;2023-05-07T12:09:59;6.30;;;1.45;;
69744;SDS011;57015;50.120;-5.168;2023-05-07T12:12:24;6.57;;;2.00;;
69744;SDS011;57015;50.120;-5.168;2023-05-07T12:14:51;5.47;;;1.67;;
69744;SDS011;57015;50.120;-5.168;2023-05-07T12:17:17;5.70;;;1.90;;
69744;SDS011;57015;50.120;-5.168;2023-05-07T12:19:43;4.63;;;1.67;;
69744;SDS011;57015;50.120;-5.168;2023-05-07T12:22:08;11.13;;;2.08;;
69744;SDS011;57015;50.120;-5.168;2023-05-07T12:24:44;6.80;;;1.97;;
69744;SDS011;57015;50.120;-5.168;2023-05-07T12:27:13;9.05;;;1.77;;
69744;SDS011;57015;50.120;-5.168;2023-05-07T12:29:39;7.05;;;1.77;;
69744;SDS011;57015;50.120;-5.168;2023-05-07T12:32:12;7.40;;;1.63;;
69744;SDS011;57015;50.120;-5.168;2023-05-07T12:34:39;9.48;;;1.40;;
69744;SDS011;57015;50.120;-5.168;2023-05-07T12:37:04;7.47;;;1.50;;
69744;SDS011;57015;50.120;-5.168;2023-05-07T12:39:30;5.70;;;1.53;;
69744;SDS011;57015;50.120;-5.168;2023-05-07T12:41:56;6.35;;;1.52;;
69744;SDS011;57015;50.120;-5.168;2023-05-07T12:44:26;5.15;;;1.60;;
69744;SDS011;57015;50.120;-5.168;2023-05-07T12:46:55;7.37;;;1.47;;
69744;SDS011;57015;50.120;-5.168;2023-05-07T12:49:20;4.80;;;1.20;;
69744;SDS011;57015;50.120;-5.168;2023-05-07T12:51:49;9.33;;;1.73;;
69744;SDS011;57015;50.120;-5.168;2023-05-07T12:54:27;6.80;;;1.33;;
69744;SDS011;57015;50.120;-5.168;2023-05-07T12:57:00;7.20;;;1.70;;
69744;SDS011;57015;50.120;-5.168;2023-05-07T12:59:37;4.57;;;1.50;;
69744;SDS011;57015;50.120;-5.168;2023-05-07T13:02:04;7.05;;;1.70;;
69744;SDS011;57015;50.120;-5.168;2023-05-07T13:04:30;8.80;;;1.40;;
69744;SDS011;57015;50.120;-5.168;2023-05-07T13:06:56;7.03;;;1.77;;
69744;SDS011;57015;50.120;-5.168;2023-05-07T13:09:21;10.13;;;1.97;;
69744;SDS011;57015;50.120;-5.168;2023-05-07T13:11:46;3.97;;;1.43;;
69744;SDS011;57015;50.120;-5.168;2023-05-07T13:14:15;5.55;;;1.77;;
69744;SDS011;57015;50.120;-5.168;2023-05-07T13:16:40;9.55;;;1.67;;
69744;SDS011;57015;50.120;-5.168;2023-05-07T13:19:06;4.88;;;1.67;;
69744;SDS011;57015;50.120;-5.168;2023-05-07T13:21:31;8.57;;;2.07;;
69744;SDS011;57015;50.120;-5.168;2023-05-07T13:23:57;5.70;;;1.45;;
69744;SDS011;57015;50.120;-5.168;2023-05-07T13:26:23;4.43;;;1.40;;
69744;SDS011;57015;50.120;-5.168;2023-05-07T13:28:49;5.25;;;0.98;;
69744;SDS011;57015;50.120;-5.168;2023-05-07T13:31:14;7.20;;;1.30;;
69744;SDS011;57015;50.120;-5.168;2023-05-07T13:33:40;6.53;;;1.40;;
69744;SDS011;57015;50.120;-5.168;2023-05-07T13:36:06;7.63;;;1.40;;
69744;SDS011;57015;50.120;-5.168;2023-05-07T13:38:31;6.17;;;1.70;;
69744;SDS011;57015;50.120;-5.168;2023-05-07T13:40:57;6.27;;;1.47;;
69744;SDS011;57015;50.120;-5.168;2023-05-07T13:43:22;6.00;;;1.08;;
69744;SDS011;57015;50.120;-5.168;2023-05-07T13:45:48;6.40;;;1.43;;
69744;SDS011;57015;50.120;-5.168;2023-05-07T13:48:13;5.43;;;1.60;;
69744;SDS011;57015;50.120;-5.168;2023-05-07T13:50:38;5.33;;;1.00;;
69744;SDS011;57015;50.120;-5.168;2023-05-07T13:53:04;6.13;;;1.50;;
69744;SDS011;57015;50.120;-5.168;2023-05-07T13:55:30;6.68;;;2.20;;
69744;SDS011;57015;50.120;-5.168;2023-05-07T13:57:55;7.27;;;1.40;;
69744;SDS011;57015;50.120;-5.168;2023-05-07T14:00:22;6.47;;;1.20;;
69744;SDS011;57015;50.120;-5.168;2023-05-07T14:02:48;5.75;;;1.48;;
69744;SDS011;57015;50.120;-5.168;2023-05-07T14:05:13;5.47;;;1.33;;
69744;SDS011;57015;50.120;-5.168;2023-05-07T14:07:39;7.07;;;1.50;;
69744;SDS011;57015;50.120;-5.168;2023-05-07T14:10:04;9.53;;;1.53;;
69744;SDS011;57015;50.120;-5.168;2023-05-07T14:12:31;7.68;;;1.98;;
69744;SDS011;57015;50.120;-5.168;2023-05-07T14:14:57;7.63;;;1.73;;
69744;SDS011;57015;50.120;-5.168;2023-05-07T14:17:22;5.90;;;1.53;;
69744;SDS011;57015;50.120;-5.168;2023-05-07T14:19:50;4.55;;;1.58;;
69744;SDS011;57015;50.120;-5.168;2023-05-07T14:22:15;6.40;;;1.30;;
69744;SDS011;57015;50.120;-5.168;2023-05-07T14:24:41;6.93;;;1.37;;
69744;SDS011;57015;50.120;-5.168;2023-05-07T14:27:06;8.07;;;1.70;;
69744;SDS011;57015;50.120;-5.168;2023-05-07T14:29:32;4.35;;;1.23;;
69744;SDS011;57015;50.120;-5.168;2023-05-07T14:31:57;7.10;;;1.30;;
69744;SDS011;57015;50.120;-5.168;2023-05-07T14:34:23;6.20;;;1.07;;
69744;SDS011;57015;50.120;-5.168;2023-05-07T14:36:48;8.57;;;1.87;;
69744;SDS011;57015;50.120;-5.168;2023-05-07T14:39:14;6.22;;;1.42;;
69744;SDS011;57015;50.120;-5.168;2023-05-07T14:41:39;6.33;;;1.60;;